sensor_id;sensor_type;location;lat;lon;timestamp;P1;durP1;ratioP1;P2;durP2;ratioP2
38196;SDS011;26543;51.976;4.616;2022-11-20T00:00:08;10.77;;;5.00;;
38196;SDS011;26543;51.976;4.616;2022-11-20T00:02:34;8.68;;;5.53;;
38196;SDS011;26543;51.976;4.616;2022-11-20T00:04:59;11.32;;;5.63;;
38196;SDS011;26543;51.976;4.616;2022-11-20T00:07:24;12.13;;;5.25;;
38196;SDS011;26543;51.976;4.616;2022-11-20T00:09:50;9.93;;;6.05;;
38196;SDS011;26543;51.976;4.616;2022-11-20T00:12:15;7.40;;;4.90;;
38196;SDS011;26543;51.976;4.616;2022-11-20T00:14:41;10.50;;;5.57;;
38196;SDS011;26543;51.976;4.616;2022-11-20T00:17:06;7.82;;;5.57;;
38196;SDS011;26543;51.976;4.616;2022-11-20T00:19:32;6.85;;;5.63;;
38196;SDS011;26543;51.976;4.616;2022-11-20T00:21:59;10.43;;;6.25;;
38196;SDS011;26543;51.976;4.616;2022-11-20T00:24:24;9.57;;;4.97;;
38196;SDS011;26543;51.976;4.616;2022-11-20T00:26:52;9.98;;;6.45;;
38196;SDS011;26543;51.976;4.616;2022-11-20T00:29:17;8.00;;;5.53;;
38196;SDS011;26543;51.976;4.616;2022-11-20T00:31:43;11.80;;;5.43;;
38196;SDS011;26543;51.976;4.616;2022-11-20T00:34:10;11.43;;;6.40;;
38196;SDS011;26543;51.976;4.616;2022-11-20T00:36:35;7.70;;;5.07;;
38196;SDS011;26543;51.976;4.616;2022-11-20T00:39:02;7.28;;;5.55;;
38196;SDS011;26543;51.976;4.616;2022-11-20T00:41:28;10.05;;;5.28;;
38196;SDS011;26543;51.976;4.616;2022-11-20T00:43:54;9.95;;;7.88;;
38196;SDS011;26543;51.976;4.616;2022-11-20T00:46:24;7.78;;;5.03;;
38196;SDS011;26543;51.976;4.616;2022-11-20T00:48:50;5.63;;;3.92;;
38196;SDS011;26543;51.976;4.616;2022-11-20T00:51:17;8.57;;;4.97;;
38196;SDS011;26543;51.976;4.616;2022-11-20T00:53:46;6.88;;;4.60;;
38196;SDS011;26543;51.976;4.616;2022-11-20T00:56:14;7.85;;;4.95;;
38196;SDS011;26543;51.976;4.616;2022-11-20T00:58:42;9.35;;;5.57;;
38196;SDS011;26543;51.976;4.616;2022-11-20T01:01:12;8.05;;;5.10;;
38196;SDS011;26543;51.976;4.616;2022-11-20T01:03:45;7.45;;;4.57;;
38196;SDS011;26543;51.976;4.616;2022-11-20T01:06:14;8.15;;;5.53;;
38196;SDS011;26543;51.976;4.616;2022-11-20T01:08:43;8.02;;;4.30;;
38196;SDS011;26543;51.976;4.616;2022-11-20T01:11:11;8.52;;;5.38;;
38196;SDS011;26543;51.976;4.616;2022-11-20T01:13:38;9.70;;;6.03;;
38196;SDS011;26543;51.976;4.616;2022-11-20T01:16:05;9.48;;;5.65;;
38196;SDS011;26543;51.976;4.616;2022-11-20T01:18:51;5.53;;;3.72;;
38196;SDS011;26543;51.976;4.616;2022-11-20T01:21:19;10.77;;;6.90;;
38196;SDS011;26543;51.976;4.616;2022-11-20T01:23:46;8.20;;;5.75;;
38196;SDS011;26543;51.976;4.616;2022-11-20T01:26:14;9.20;;;5.45;;
38196;SDS011;26543;51.976;4.616;2022-11-20T01:28:49;9.43;;;4.55;;
38196;SDS011;26543;51.976;4.616;2022-11-20T01:33:47;11.95;;;5.93;;
38196;SDS011;26543;51.976;4.616;2022-11-20T01:36:16;8.15;;;5.47;;
38196;SDS011;26543;51.976;4.616;2022-11-20T01:38:43;9.13;;;4.82;;
38196;SDS011;26543;51.976;4.616;2022-11-20T01:41:11;10.68;;;4.88;;
38196;SDS011;26543;51.976;4.616;2022-11-20T01:43:58;8.05;;;5.45;;
38196;SDS011;26543;51.976;4.616;2022-11-20T01:46:25;11.30;;;6.05;;
38196;SDS011;26543;51.976;4.616;2022-11-20T01:52:05;7.70;;;5.05;;
38196;SDS011;26543;51.976;4.616;2022-11-20T01:54:38;14.40;;;7.95;;
38196;SDS011;26543;51.976;4.616;2022-11-20T01:57:13;9.48;;;6.57;;
38196;SDS011;26543;51.976;4.616;2022-11-20T01:59:44;16.80;;;7.85;;
38196;SDS011;26543;51.976;4.616;2022-11-20T02:02:15;9.93;;;5.90;;
38196;SDS011;26543;51.976;4.616;2022-11-20T02:04:42;10.00;;;5.63;;
38196;SDS011;26543;51.976;4.616;2022-11-20T02:07:07;8.30;;;7.25;;
38196;SDS011;26543;51.976;4.616;2022-11-20T02:09:33;16.42;;;6.85;;
38196;SDS011;26543;51.976;4.616;2022-11-20T02:11:58;16.80;;;9.25;;
38196;SDS011;26543;51.976;4.616;2022-11-20T02:14:24;8.60;;;5.82;;
38196;SDS011;26543;51.976;4.616;2022-11-20T02:16:50;12.18;;;7.18;;
38196;SDS011;26543;51.976;4.616;2022-11-20T02:24:24;12.82;;;6.90;;
38196;SDS011;26543;51.976;4.616;2022-11-20T02:26:51;12.35;;;8.23;;
38196;SDS011;26543;51.976;4.616;2022-11-20T02:30:02;12.48;;;5.90;;
38196;SDS011;26543;51.976;4.616;2022-11-20T02:32:23;7.00;;;5.25;;
38196;SDS011;26543;51.976;4.616;2022-11-20T02:34:50;10.43;;;8.38;;
38196;SDS011;26543;51.976;4.616;2022-11-20T02:37:16;9.93;;;6.05;;
38196;SDS011;26543;51.976;4.616;2022-11-20T02:39:43;7.15;;;5.22;;
38196;SDS011;26543;51.976;4.616;2022-11-20T02:42:11;10.77;;;7.35;;
38196;SDS011;26543;51.976;4.616;2022-11-20T02:44:40;7.35;;;5.00;;
38196;SDS011;26543;51.976;4.616;2022-11-20T02:47:07;10.30;;;5.85;;
38196;SDS011;26543;51.976;4.616;2022-11-20T02:49:32;11.25;;;7.20;;
38196;SDS011;26543;51.976;4.616;2022-11-20T02:51:58;8.38;;;5.28;;
38196;SDS011;26543;51.976;4.616;2022-11-20T02:54:24;13.48;;;9.40;;
38196;SDS011;26543;51.976;4.616;2022-11-20T02:56:49;17.48;;;12.15;;
38196;SDS011;26543;51.976;4.616;2022-11-20T02:59:15;20.42;;;13.15;;
38196;SDS011;26543;51.976;4.616;2022-11-20T03:01:40;18.02;;;11.27;;
38196;SDS011;26543;51.976;4.616;2022-11-20T03:04:05;21.23;;;11.02;;
38196;SDS011;26543;51.976;4.616;2022-11-20T03:06:31;14.82;;;10.63;;
38196;SDS011;26543;51.976;4.616;2022-11-20T03:09:07;17.33;;;12.15;;
38196;SDS011;26543;51.976;4.616;2022-11-20T03:11:32;26.58;;;16.20;;
38196;SDS011;26543;51.976;4.616;2022-11-20T03:13:57;20.80;;;14.00;;
38196;SDS011;26543;51.976;4.616;2022-11-20T03:16:27;18.27;;;14.02;;
38196;SDS011;26543;51.976;4.616;2022-11-20T03:18:52;18.60;;;13.88;;
38196;SDS011;26543;51.976;4.616;2022-11-20T03:21:18;16.73;;;12.48;;
38196;SDS011;26543;51.976;4.616;2022-11-20T03:23:51;18.50;;;10.10;;
38196;SDS011;26543;51.976;4.616;2022-11-20T03:26:18;16.45;;;8.45;;
38196;SDS011;26543;51.976;4.616;2022-11-20T03:28:48;11.82;;;9.05;;
38196;SDS011;26543;51.976;4.616;2022-11-20T03:31:15;10.35;;;7.25;;
38196;SDS011;26543;51.976;4.616;2022-11-20T03:33:45;11.52;;;7.85;;
38196;SDS011;26543;51.976;4.616;2022-11-20T03:36:12;15.25;;;9.55;;
38196;SDS011;26543;51.976;4.616;2022-11-20T03:38:38;12.35;;;9.52;;
38196;SDS011;26543;51.976;4.616;2022-11-20T03:41:08;11.70;;;8.43;;
38196;SDS011;26543;51.976;4.616;2022-11-20T03:43:38;11.35;;;7.85;;
38196;SDS011;26543;51.976;4.616;2022-11-20T03:46:06;13.75;;;6.78;;
38196;SDS011;26543;51.976;4.616;2022-11-20T03:48:32;14.43;;;6.72;;
38196;SDS011;26543;51.976;4.616;2022-11-20T03:51:11;11.85;;;7.45;;
38196;SDS011;26543;51.976;4.616;2022-11-20T03:53:39;12.30;;;8.02;;
38196;SDS011;26543;51.976;4.616;2022-11-20T03:56:06;11.85;;;7.00;;
38196;SDS011;26543;51.976;4.616;2022-11-20T03:58:33;10.63;;;8.07;;
38196;SDS011;26543;51.976;4.616;2022-11-20T04:01:08;13.05;;;7.63;;
38196;SDS011;26543;51.976;4.616;2022-11-20T04:03:35;13.25;;;6.95;;
38196;SDS011;26543;51.976;4.616;2022-11-20T04:06:05;13.90;;;9.35;;
38196;SDS011;26543;51.976;4.616;2022-11-20T04:08:36;16.95;;;8.68;;
38196;SDS011;26543;51.976;4.616;2022-11-20T04:11:15;9.55;;;6.95;;
38196;SDS011;26543;51.976;4.616;2022-11-20T04:13:46;11.90;;;8.32;;
38196;SDS011;26543;51.976;4.616;2022-11-20T04:16:12;15.73;;;7.43;;
38196;SDS011;26543;51.976;4.616;2022-11-20T04:18:38;9.32;;;5.65;;
38196;SDS011;26543;51.976;4.616;2022-11-20T04:21:05;9.23;;;7.07;;
38196;SDS011;26543;51.976;4.616;2022-11-20T04:23:31;12.95;;;8.65;;
38196;SDS011;26543;51.976;4.616;2022-11-20T04:26:01;10.23;;;8.55;;
38196;SDS011;26543;51.976;4.616;2022-11-20T04:28:33;11.55;;;7.82;;
38196;SDS011;26543;51.976;4.616;2022-11-20T04:31:06;7.13;;;5.38;;
38196;SDS011;26543;51.976;4.616;2022-11-20T04:33:40;13.45;;;7.00;;
38196;SDS011;26543;51.976;4.616;2022-11-20T04:36:12;10.77;;;5.70;;
38196;SDS011;26543;51.976;4.616;2022-11-20T04:38:56;11.65;;;6.75;;
38196;SDS011;26543;51.976;4.616;2022-11-20T04:41:24;8.57;;;6.15;;
38196;SDS011;26543;51.976;4.616;2022-11-20T04:43:52;10.10;;;6.32;;
38196;SDS011;26543;51.976;4.616;2022-11-20T04:46:23;8.93;;;5.47;;
38196;SDS011;26543;51.976;4.616;2022-11-20T04:48:49;5.13;;;4.60;;
38196;SDS011;26543;51.976;4.616;2022-11-20T04:51:15;8.40;;;6.28;;
38196;SDS011;26543;51.976;4.616;2022-11-20T04:53:41;8.93;;;6.78;;
38196;SDS011;26543;51.976;4.616;2022-11-20T04:56:07;11.25;;;7.10;;
38196;SDS011;26543;51.976;4.616;2022-11-20T04:58:34;12.50;;;5.93;;
38196;SDS011;26543;51.976;4.616;2022-11-20T05:01:05;9.15;;;5.80;;
38196;SDS011;26543;51.976;4.616;2022-11-20T05:03:30;8.35;;;5.97;;
38196;SDS011;26543;51.976;4.616;2022-11-20T05:05:56;7.97;;;6.25;;
38196;SDS011;26543;51.976;4.616;2022-11-20T05:08:24;8.80;;;6.05;;
38196;SDS011;26543;51.976;4.616;2022-11-20T05:10:50;11.65;;;6.43;;
38196;SDS011;26543;51.976;4.616;2022-11-20T05:13:15;10.57;;;6.90;;
38196;SDS011;26543;51.976;4.616;2022-11-20T05:15:40;11.18;;;7.07;;
38196;SDS011;26543;51.976;4.616;2022-11-20T05:18:06;7.13;;;5.63;;
38196;SDS011;26543;51.976;4.616;2022-11-20T05:20:32;13.07;;;6.72;;
38196;SDS011;26543;51.976;4.616;2022-11-20T05:22:57;8.75;;;7.68;;
38196;SDS011;26543;51.976;4.616;2022-11-20T05:25:26;11.82;;;7.65;;
38196;SDS011;26543;51.976;4.616;2022-11-20T05:27:52;13.30;;;5.57;;
38196;SDS011;26543;51.976;4.616;2022-11-20T05:30:22;10.45;;;5.72;;
38196;SDS011;26543;51.976;4.616;2022-11-20T05:32:47;12.18;;;7.57;;
38196;SDS011;26543;51.976;4.616;2022-11-20T05:35:12;11.18;;;5.90;;
38196;SDS011;26543;51.976;4.616;2022-11-20T05:37:43;8.13;;;5.15;;
38196;SDS011;26543;51.976;4.616;2022-11-20T05:40:08;10.13;;;6.53;;
38196;SDS011;26543;51.976;4.616;2022-11-20T05:42:37;11.77;;;7.80;;
38196;SDS011;26543;51.976;4.616;2022-11-20T05:45:03;9.80;;;6.20;;
38196;SDS011;26543;51.976;4.616;2022-11-20T05:47:33;13.27;;;7.10;;
38196;SDS011;26543;51.976;4.616;2022-11-20T05:49:59;10.23;;;5.93;;
38196;SDS011;26543;51.976;4.616;2022-11-20T05:52:29;7.47;;;5.20;;
38196;SDS011;26543;51.976;4.616;2022-11-20T05:57:20;7.65;;;4.78;;
38196;SDS011;26543;51.976;4.616;2022-11-20T05:59:46;8.23;;;5.07;;
38196;SDS011;26543;51.976;4.616;2022-11-20T06:02:11;5.97;;;4.63;;
38196;SDS011;26543;51.976;4.616;2022-11-20T06:04:36;7.13;;;5.68;;
38196;SDS011;26543;51.976;4.616;2022-11-20T06:07:02;14.65;;;6.32;;
38196;SDS011;26543;51.976;4.616;2022-11-20T06:09:27;10.82;;;6.47;;
38196;SDS011;26543;51.976;4.616;2022-11-20T06:11:54;12.38;;;6.43;;
38196;SDS011;26543;51.976;4.616;2022-11-20T06:14:19;8.50;;;6.03;;
38196;SDS011;26543;51.976;4.616;2022-11-20T06:16:45;9.82;;;5.43;;
38196;SDS011;26543;51.976;4.616;2022-11-20T06:19:10;7.60;;;5.10;;
38196;SDS011;26543;51.976;4.616;2022-11-20T06:21:35;6.85;;;5.75;;
38196;SDS011;26543;51.976;4.616;2022-11-20T06:24:02;13.82;;;5.55;;
38196;SDS011;26543;51.976;4.616;2022-11-20T06:26:28;5.47;;;4.57;;
38196;SDS011;26543;51.976;4.616;2022-11-20T06:28:54;7.25;;;4.53;;
38196;SDS011;26543;51.976;4.616;2022-11-20T06:31:21;8.07;;;5.93;;
38196;SDS011;26543;51.976;4.616;2022-11-20T06:33:48;10.57;;;5.40;;
38196;SDS011;26543;51.976;4.616;2022-11-20T06:36:15;8.57;;;5.85;;
38196;SDS011;26543;51.976;4.616;2022-11-20T06:38:42;10.77;;;6.00;;
38196;SDS011;26543;51.976;4.616;2022-11-20T06:41:15;8.88;;;6.93;;
38196;SDS011;26543;51.976;4.616;2022-11-20T06:43:42;9.48;;;5.63;;
38196;SDS011;26543;51.976;4.616;2022-11-20T06:46:08;7.13;;;5.38;;
38196;SDS011;26543;51.976;4.616;2022-11-20T06:48:35;12.23;;;6.07;;
38196;SDS011;26543;51.976;4.616;2022-11-20T06:51:02;8.00;;;5.78;;
38196;SDS011;26543;51.976;4.616;2022-11-20T06:53:29;9.07;;;7.30;;
38196;SDS011;26543;51.976;4.616;2022-11-20T06:55:55;11.52;;;5.95;;
38196;SDS011;26543;51.976;4.616;2022-11-20T06:58:21;7.53;;;5.78;;
38196;SDS011;26543;51.976;4.616;2022-11-20T07:01:02;11.23;;;5.97;;
38196;SDS011;26543;51.976;4.616;2022-11-20T07:03:30;11.00;;;7.20;;
38196;SDS011;26543;51.976;4.616;2022-11-20T07:05:56;7.32;;;6.45;;
38196;SDS011;26543;51.976;4.616;2022-11-20T07:08:23;9.48;;;6.18;;
38196;SDS011;26543;51.976;4.616;2022-11-20T07:10:49;12.05;;;6.82;;
38196;SDS011;26543;51.976;4.616;2022-11-20T07:13:17;10.98;;;6.70;;
38196;SDS011;26543;51.976;4.616;2022-11-20T07:15:42;13.45;;;7.22;;
38196;SDS011;26543;51.976;4.616;2022-11-20T07:18:08;9.93;;;6.53;;
38196;SDS011;26543;51.976;4.616;2022-11-20T07:20:33;6.97;;;5.68;;
38196;SDS011;26543;51.976;4.616;2022-11-20T07:23:01;13.07;;;7.72;;
38196;SDS011;26543;51.976;4.616;2022-11-20T07:25:26;10.70;;;7.47;;
38196;SDS011;26543;51.976;4.616;2022-11-20T07:27:56;12.77;;;7.22;;
38196;SDS011;26543;51.976;4.616;2022-11-20T07:30:22;11.50;;;6.60;;
38196;SDS011;26543;51.976;4.616;2022-11-20T07:32:51;9.65;;;6.40;;
38196;SDS011;26543;51.976;4.616;2022-11-20T07:35:17;10.95;;;5.55;;
38196;SDS011;26543;51.976;4.616;2022-11-20T07:37:42;11.75;;;6.88;;
38196;SDS011;26543;51.976;4.616;2022-11-20T07:40:08;11.35;;;6.85;;
38196;SDS011;26543;51.976;4.616;2022-11-20T07:42:34;8.35;;;6.35;;
38196;SDS011;26543;51.976;4.616;2022-11-20T07:45:02;12.80;;;6.53;;
38196;SDS011;26543;51.976;4.616;2022-11-20T07:47:28;11.03;;;6.70;;
38196;SDS011;26543;51.976;4.616;2022-11-20T07:49:53;11.23;;;7.47;;
38196;SDS011;26543;51.976;4.616;2022-11-20T07:52:19;9.80;;;7.05;;
38196;SDS011;26543;51.976;4.616;2022-11-20T07:54:44;14.38;;;6.50;;
38196;SDS011;26543;51.976;4.616;2022-11-20T07:57:13;10.45;;;9.10;;
38196;SDS011;26543;51.976;4.616;2022-11-20T07:59:39;13.60;;;8.25;;
38196;SDS011;26543;51.976;4.616;2022-11-20T08:02:04;8.30;;;6.47;;
38196;SDS011;26543;51.976;4.616;2022-11-20T08:04:30;13.00;;;7.38;;
38196;SDS011;26543;51.976;4.616;2022-11-20T08:06:57;11.07;;;6.10;;
38196;SDS011;26543;51.976;4.616;2022-11-20T08:09:22;10.00;;;7.03;;
38196;SDS011;26543;51.976;4.616;2022-11-20T08:11:48;14.60;;;9.15;;
38196;SDS011;26543;51.976;4.616;2022-11-20T08:14:31;10.20;;;7.75;;
38196;SDS011;26543;51.976;4.616;2022-11-20T08:16:57;12.40;;;7.82;;
38196;SDS011;26543;51.976;4.616;2022-11-20T08:19:22;9.43;;;6.47;;
38196;SDS011;26543;51.976;4.616;2022-11-20T08:21:48;12.65;;;7.45;;
38196;SDS011;26543;51.976;4.616;2022-11-20T08:37:50;12.02;;;8.15;;
38196;SDS011;26543;51.976;4.616;2022-11-20T08:40:15;11.50;;;7.47;;
38196;SDS011;26543;51.976;4.616;2022-11-20T08:42:48;11.25;;;7.40;;
38196;SDS011;26543;51.976;4.616;2022-11-20T08:45:14;11.82;;;6.40;;
38196;SDS011;26543;51.976;4.616;2022-11-20T08:47:41;10.45;;;7.07;;
38196;SDS011;26543;51.976;4.616;2022-11-20T08:50:07;10.95;;;6.75;;
38196;SDS011;26543;51.976;4.616;2022-11-20T08:52:34;12.55;;;7.25;;
38196;SDS011;26543;51.976;4.616;2022-11-20T08:55:00;9.85;;;7.53;;
38196;SDS011;26543;51.976;4.616;2022-11-20T08:57:25;11.85;;;7.28;;
38196;SDS011;26543;51.976;4.616;2022-11-20T08:59:51;10.05;;;7.25;;
38196;SDS011;26543;51.976;4.616;2022-11-20T09:02:16;11.40;;;7.60;;
38196;SDS011;26543;51.976;4.616;2022-11-20T09:04:42;10.55;;;7.43;;
38196;SDS011;26543;51.976;4.616;2022-11-20T09:07:07;10.38;;;7.05;;
38196;SDS011;26543;51.976;4.616;2022-11-20T09:09:32;10.98;;;6.75;;
38196;SDS011;26543;51.976;4.616;2022-11-20T09:11:58;12.70;;;7.60;;
38196;SDS011;26543;51.976;4.616;2022-11-20T09:14:23;11.00;;;6.05;;
38196;SDS011;26543;51.976;4.616;2022-11-20T09:16:54;12.27;;;7.30;;
38196;SDS011;26543;51.976;4.616;2022-11-20T09:19:23;10.70;;;7.43;;
38196;SDS011;26543;51.976;4.616;2022-11-20T09:21:51;9.63;;;7.63;;
38196;SDS011;26543;51.976;4.616;2022-11-20T09:24:16;9.70;;;7.65;;
38196;SDS011;26543;51.976;4.616;2022-11-20T09:26:42;11.90;;;7.00;;
38196;SDS011;26543;51.976;4.616;2022-11-20T09:29:07;12.43;;;7.88;;
38196;SDS011;26543;51.976;4.616;2022-11-20T09:31:32;10.82;;;8.55;;
38196;SDS011;26543;51.976;4.616;2022-11-20T09:33:58;11.27;;;7.70;;
38196;SDS011;26543;51.976;4.616;2022-11-20T09:36:23;16.17;;;8.55;;
38196;SDS011;26543;51.976;4.616;2022-11-20T09:38:48;15.07;;;7.30;;
38196;SDS011;26543;51.976;4.616;2022-11-20T09:41:32;12.77;;;7.13;;
38196;SDS011;26543;51.976;4.616;2022-11-20T09:44:29;12.05;;;7.15;;
38196;SDS011;26543;51.976;4.616;2022-11-20T09:47:08;12.38;;;6.45;;
38196;SDS011;26543;51.976;4.616;2022-11-20T09:50:43;11.10;;;7.30;;
38196;SDS011;26543;51.976;4.616;2022-11-20T09:55:36;15.43;;;9.38;;
38196;SDS011;26543;51.976;4.616;2022-11-20T09:58:04;14.60;;;8.45;;
38196;SDS011;26543;51.976;4.616;2022-11-20T10:00:32;13.00;;;9.13;;
38196;SDS011;26543;51.976;4.616;2022-11-20T10:03:01;11.15;;;7.18;;
38196;SDS011;26543;51.976;4.616;2022-11-20T10:05:43;14.10;;;8.25;;
38196;SDS011;26543;51.976;4.616;2022-11-20T10:08:25;11.32;;;8.07;;
38196;SDS011;26543;51.976;4.616;2022-11-20T10:11:10;15.32;;;8.35;;
38196;SDS011;26543;51.976;4.616;2022-11-20T10:24:56;13.48;;;9.13;;
38196;SDS011;26543;51.976;4.616;2022-11-20T10:30:11;13.27;;;7.97;;
38196;SDS011;26543;51.976;4.616;2022-11-20T10:32:39;11.18;;;7.25;;
38196;SDS011;26543;51.976;4.616;2022-11-20T10:35:14;11.60;;;8.60;;
38196;SDS011;26543;51.976;4.616;2022-11-20T10:37:42;15.70;;;9.65;;
38196;SDS011;26543;51.976;4.616;2022-11-20T10:40:22;13.73;;;8.65;;
38196;SDS011;26543;51.976;4.616;2022-11-20T10:48:26;17.30;;;9.77;;
38196;SDS011;26543;51.976;4.616;2022-11-20T10:56:24;13.50;;;8.85;;
38196;SDS011;26543;51.976;4.616;2022-11-20T11:01:55;13.50;;;8.45;;
38196;SDS011;26543;51.976;4.616;2022-11-20T11:07:15;16.25;;;9.55;;
38196;SDS011;26543;51.976;4.616;2022-11-20T11:09:49;16.02;;;9.95;;
38196;SDS011;26543;51.976;4.616;2022-11-20T11:12:17;15.95;;;8.98;;
38196;SDS011;26543;51.976;4.616;2022-11-20T11:14:51;18.23;;;10.35;;
38196;SDS011;26543;51.976;4.616;2022-11-20T11:17:20;12.95;;;9.25;;
38196;SDS011;26543;51.976;4.616;2022-11-20T11:19:56;18.40;;;11.15;;
38196;SDS011;26543;51.976;4.616;2022-11-20T11:22:23;19.55;;;9.90;;
38196;SDS011;26543;51.976;4.616;2022-11-20T11:24:52;15.15;;;10.68;;
38196;SDS011;26543;51.976;4.616;2022-11-20T11:27:18;17.23;;;9.38;;
38196;SDS011;26543;51.976;4.616;2022-11-20T11:29:44;15.40;;;10.32;;
38196;SDS011;26543;51.976;4.616;2022-11-20T11:32:20;15.38;;;9.25;;
38196;SDS011;26543;51.976;4.616;2022-11-20T11:35:06;16.13;;;10.20;;
38196;SDS011;26543;51.976;4.616;2022-11-20T11:37:43;18.27;;;11.25;;
38196;SDS011;26543;51.976;4.616;2022-11-20T11:40:15;18.38;;;9.93;;
38196;SDS011;26543;51.976;4.616;2022-11-20T11:42:43;14.57;;;9.25;;
38196;SDS011;26543;51.976;4.616;2022-11-20T11:45:12;16.27;;;10.82;;
38196;SDS011;26543;51.976;4.616;2022-11-20T11:52:41;15.50;;;9.93;;
38196;SDS011;26543;51.976;4.616;2022-11-20T11:55:15;16.48;;;10.10;;
38196;SDS011;26543;51.976;4.616;2022-11-20T12:03:42;15.55;;;10.32;;
38196;SDS011;26543;51.976;4.616;2022-11-20T12:06:15;15.57;;;9.93;;
38196;SDS011;26543;51.976;4.616;2022-11-20T12:08:59;15.15;;;10.13;;
38196;SDS011;26543;51.976;4.616;2022-11-20T12:16:29;15.15;;;9.88;;
38196;SDS011;26543;51.976;4.616;2022-11-20T12:18:59;19.98;;;10.48;;
38196;SDS011;26543;51.976;4.616;2022-11-20T12:21:31;17.40;;;10.85;;
38196;SDS011;26543;51.976;4.616;2022-11-20T12:29:49;17.02;;;10.25;;
38196;SDS011;26543;51.976;4.616;2022-11-20T12:43:43;19.35;;;11.30;;
38196;SDS011;26543;51.976;4.616;2022-11-20T12:46:55;17.98;;;11.23;;
38196;SDS011;26543;51.976;4.616;2022-11-20T12:52:39;17.40;;;11.50;;
38196;SDS011;26543;51.976;4.616;2022-11-20T13:00:29;18.50;;;10.02;;
38196;SDS011;26543;51.976;4.616;2022-11-20T13:06:19;20.75;;;10.65;;
38196;SDS011;26543;51.976;4.616;2022-11-20T13:08:54;20.50;;;11.48;;
38196;SDS011;26543;51.976;4.616;2022-11-20T13:19:20;25.90;;;13.45;;
38196;SDS011;26543;51.976;4.616;2022-11-20T13:21:47;22.35;;;12.10;;
38196;SDS011;26543;51.976;4.616;2022-11-20T13:29:30;23.80;;;13.73;;
38196;SDS011;26543;51.976;4.616;2022-11-20T13:32:14;24.52;;;14.50;;
38196;SDS011;26543;51.976;4.616;2022-11-20T13:34:54;22.70;;;14.82;;
38196;SDS011;26543;51.976;4.616;2022-11-20T13:37:26;23.05;;;14.25;;
38196;SDS011;26543;51.976;4.616;2022-11-20T13:40:04;23.65;;;14.15;;
38196;SDS011;26543;51.976;4.616;2022-11-20T13:42:33;20.08;;;11.95;;
38196;SDS011;26543;51.976;4.616;2022-11-20T13:45:08;29.38;;;12.85;;
38196;SDS011;26543;51.976;4.616;2022-11-20T13:47:36;32.97;;;14.75;;
38196;SDS011;26543;51.976;4.616;2022-11-20T13:50:03;21.70;;;12.95;;
38196;SDS011;26543;51.976;4.616;2022-11-20T13:58:53;24.70;;;12.80;;
38196;SDS011;26543;51.976;4.616;2022-11-20T14:01:30;29.05;;;14.00;;
38196;SDS011;26543;51.976;4.616;2022-11-20T14:03:57;21.27;;;13.30;;
38196;SDS011;26543;51.976;4.616;2022-11-20T14:08:53;23.52;;;12.23;;
38196;SDS011;26543;51.976;4.616;2022-11-20T14:11:20;30.90;;;13.85;;
38196;SDS011;26543;51.976;4.616;2022-11-20T14:13:59;26.30;;;14.80;;
38196;SDS011;26543;51.976;4.616;2022-11-20T14:16:27;26.25;;;13.80;;
38196;SDS011;26543;51.976;4.616;2022-11-20T14:18:54;18.02;;;11.82;;
38196;SDS011;26543;51.976;4.616;2022-11-20T14:21:21;25.77;;;12.25;;
38196;SDS011;26543;51.976;4.616;2022-11-20T14:24:10;25.73;;;14.95;;
38196;SDS011;26543;51.976;4.616;2022-11-20T14:26:46;31.10;;;16.13;;
38196;SDS011;26543;51.976;4.616;2022-11-20T14:29:16;33.55;;;15.48;;
38196;SDS011;26543;51.976;4.616;2022-11-20T14:31:47;24.23;;;12.68;;
38196;SDS011;26543;51.976;4.616;2022-11-20T14:34:18;27.65;;;14.68;;
38196;SDS011;26543;51.976;4.616;2022-11-20T14:36:47;25.58;;;15.25;;
38196;SDS011;26543;51.976;4.616;2022-11-20T14:39:25;36.08;;;17.23;;
38196;SDS011;26543;51.976;4.616;2022-11-20T14:41:55;23.80;;;12.43;;
38196;SDS011;26543;51.976;4.616;2022-11-20T14:44:22;28.55;;;15.95;;
38196;SDS011;26543;51.976;4.616;2022-11-20T14:46:54;23.83;;;13.98;;
38196;SDS011;26543;51.976;4.616;2022-11-20T14:49:20;27.95;;;14.10;;
38196;SDS011;26543;51.976;4.616;2022-11-20T14:51:46;27.27;;;15.13;;
38196;SDS011;26543;51.976;4.616;2022-11-20T14:54:23;30.63;;;15.23;;
38196;SDS011;26543;51.976;4.616;2022-11-20T14:56:58;30.05;;;13.45;;
38196;SDS011;26543;51.976;4.616;2022-11-20T14:59:27;28.10;;;13.50;;
38196;SDS011;26543;51.976;4.616;2022-11-20T15:02:08;27.10;;;15.18;;
38196;SDS011;26543;51.976;4.616;2022-11-20T15:04:46;25.02;;;14.35;;
38196;SDS011;26543;51.976;4.616;2022-11-20T15:07:31;34.13;;;15.43;;
38196;SDS011;26543;51.976;4.616;2022-11-20T15:10:03;25.58;;;13.35;;
38196;SDS011;26543;51.976;4.616;2022-11-20T15:12:31;35.28;;;16.88;;
38196;SDS011;26543;51.976;4.616;2022-11-20T15:15:00;27.17;;;16.10;;
38196;SDS011;26543;51.976;4.616;2022-11-20T15:17:27;23.15;;;14.50;;
38196;SDS011;26543;51.976;4.616;2022-11-20T15:19:53;28.88;;;16.13;;
38196;SDS011;26543;51.976;4.616;2022-11-20T15:22:24;34.53;;;16.25;;
38196;SDS011;26543;51.976;4.616;2022-11-20T15:24:49;31.30;;;14.88;;
38196;SDS011;26543;51.976;4.616;2022-11-20T15:27:15;31.27;;;16.00;;
38196;SDS011;26543;51.976;4.616;2022-11-20T15:29:41;28.85;;;16.02;;
38196;SDS011;26543;51.976;4.616;2022-11-20T15:32:07;30.30;;;15.32;;
38196;SDS011;26543;51.976;4.616;2022-11-20T15:34:33;30.60;;;16.52;;
38196;SDS011;26543;51.976;4.616;2022-11-20T15:36:58;29.48;;;15.82;;
38196;SDS011;26543;51.976;4.616;2022-11-20T15:39:24;24.80;;;14.50;;
38196;SDS011;26543;51.976;4.616;2022-11-20T15:41:49;28.60;;;16.00;;
38196;SDS011;26543;51.976;4.616;2022-11-20T15:44:14;26.25;;;13.45;;
38196;SDS011;26543;51.976;4.616;2022-11-20T15:46:40;30.02;;;15.68;;
38196;SDS011;26543;51.976;4.616;2022-11-20T15:49:11;30.10;;;16.58;;
38196;SDS011;26543;51.976;4.616;2022-11-20T15:51:41;25.40;;;15.32;;
38196;SDS011;26543;51.976;4.616;2022-11-20T15:54:10;24.50;;;14.55;;
38196;SDS011;26543;51.976;4.616;2022-11-20T15:56:40;26.58;;;14.88;;
38196;SDS011;26543;51.976;4.616;2022-11-20T15:59:06;26.92;;;15.68;;
38196;SDS011;26543;51.976;4.616;2022-11-20T16:01:31;29.50;;;16.20;;
38196;SDS011;26543;51.976;4.616;2022-11-20T16:03:57;24.42;;;13.63;;
38196;SDS011;26543;51.976;4.616;2022-11-20T16:06:22;25.20;;;13.63;;
38196;SDS011;26543;51.976;4.616;2022-11-20T16:08:48;22.05;;;12.95;;
38196;SDS011;26543;51.976;4.616;2022-11-20T16:11:16;19.60;;;11.60;;
38196;SDS011;26543;51.976;4.616;2022-11-20T16:13:42;23.00;;;14.05;;
38196;SDS011;26543;51.976;4.616;2022-11-20T16:16:34;24.05;;;14.90;;
38196;SDS011;26543;51.976;4.616;2022-11-20T16:19:02;26.52;;;15.63;;
38196;SDS011;26543;51.976;4.616;2022-11-20T16:21:28;25.17;;;14.02;;
38196;SDS011;26543;51.976;4.616;2022-11-20T16:23:57;28.52;;;15.35;;
38196;SDS011;26543;51.976;4.616;2022-11-20T16:26:33;22.70;;;15.75;;
38196;SDS011;26543;51.976;4.616;2022-11-20T16:28:59;22.55;;;13.88;;
38196;SDS011;26543;51.976;4.616;2022-11-20T16:31:25;27.23;;;14.77;;
38196;SDS011;26543;51.976;4.616;2022-11-20T16:33:52;26.55;;;14.25;;
38196;SDS011;26543;51.976;4.616;2022-11-20T16:36:19;25.25;;;14.35;;
38196;SDS011;26543;51.976;4.616;2022-11-20T16:38:46;30.40;;;14.27;;
38196;SDS011;26543;51.976;4.616;2022-11-20T16:41:17;30.13;;;15.38;;
38196;SDS011;26543;51.976;4.616;2022-11-20T16:43:46;24.08;;;12.70;;
38196;SDS011;26543;51.976;4.616;2022-11-20T16:46:14;20.02;;;12.13;;
38196;SDS011;26543;51.976;4.616;2022-11-20T16:48:40;24.38;;;14.23;;
38196;SDS011;26543;51.976;4.616;2022-11-20T16:51:07;26.20;;;14.18;;